Airfield :
LOGIN :

Register | Disclaimer

   EN    FR    IT 

 










Legend :    VFR   Marginal VFR   IFR   Intensive IFR   Very Intensive IFR
Visi :
Ceiling :
>= 8 km
>= 3000ft
5 to 8 km
1000 to 3000 ft
1500m to 5 km
500 to 1000 ft
800 to 1500m
200 to 500 ft
< 800m
< 200 ft
Symbols :   Thunderstorms  Fog  Heavy snow  Heavy precipitations  Wind > 20 kt
SIGMETs :     Misc.  Thunderstorms  Icing  Turbulence  Mountain Waves  Volcanic Ashes







- Airport Elevation : 3 ft
- IATA code : LWR


EHLW - Leuuwarden Air Base

CURRENT METAR :
  • 262125Z AUTO 08006KT 040V130 3800 BR NCD 13/12 Q1024 GRN

EXPIRED METARs :
  • 262110Z AUTO 07006KT 360V130 4900 BR NCD 13/13 Q1024 GRN
  • 262055Z AUTO 08006KT 040V130 5000 BR BKN040 14/13 Q1024 WHT
  • 262025Z AUTO 08006KT 030V120 6000 BR OVC039 14/13 Q1024 WHT
  • 261955Z AUTO 08006KT 360V110 6000 BR FEW023 BKN033 OVC037 14/13 Q1024 WHT
  • 261930Z AUTO 06006KT 020V120 5000 BR FEW022 SCT046 13/13 Q1024 WHT
  • 261920Z AUTO 06005KT 020V100 4900 BR SCT031 BKN037 OVC041 13/13 Q1024 GRN
  • 261855Z AUTO 06005KT 020V120 5000 BR BKN034 OVC045 13/12 Q1024 WHT
  • 261825Z AUTO 06006KT 010V120 5000 BR FEW031 OVC037 13/12 Q1024 WHT

TAF TAF EHLW
Valid from the 26 at 13:00 until the 27 at 01:00 UTC


261233Z 2613/2701 10007KT 9999 BKN018
BECMG 2613/2616 SCT020
BECMG 2618/2620 3000 BR MIFG
PROB40 TEMP0 2622/2701 0700 BCFG BKN002
No reported NOTAMs for that airfield.



MET'MAP, your aeronautical weather chart ! - Copyright ORBIFLY December 2007 - Disclaimer

ORBIFLY MET'MAP TEAM :

Programming & Development : Alexandra Zaïnal
Concept & Development : Baudouin d'Aumeries
Co-Development & Prog : Marc-Olivier Méhu
Technical & hardware support : Manuel Goepfert

Contact : metmap@orbifly.com




SOURCES & CREDITS :

   NOAA